Terminal Aerodrome Forecast
Issued by NWS

Home | Current Version | Previous Version | Graphics & Text | Print | Product List | Glossary On
Versions: 1 2 3 4 5 6 7 8 9 10 11 12 13 14 15
000
FTUS43 KBIS 230950 AAA
TAFJMS
TAF AMD
KJMS 230950Z 2310/2406 31018G28KT P6SM SCT010 OVC025
     FM231500 31021G30KT P6SM SCT020 BKN045
     FM231700 31022G31KT P6SM FEW030 SCT060
     FM240200 32014KT P6SM FEW045 FEW200
     FM240500 30009KT P6SM SCT200=

USA.gov is the U.S. government's official web portal to all federal, state and local government web resources and services.